Fort Collinson, Northwest Territories

9:23 AM MDT on June 24, 2018 (GMT -0600)
Holman Island | | Change Station

Elev 118 ft 70.77 °N, 117.80 °W | Updated 23 minutes ago

Partly Cloudy
Partly Cloudy
46 °F
Feels Like 39 °F
N
18
Wind Variable Wind from NNE

Today
High -- | Low -- °F
--% Chance of Precip.
Yesterday
High -- | Low -- °F
Precip. -- in
Pressure 29.82 in
Visibility 15.0 miles
Clouds Few 2500 ft
Few 8300 ft
Few 22000 ft
Windchill 39 °F
Dew Point 39 °F
Humidity 76%
Rainfall 0.00 in
Snow Depth Not available.
5:00 PM 5:00 PM
Waxing Gibbous, 88% visible
METAR CYHI 241500Z 02016KT 15SM FEW025 FEW083 FEW220 08/04 A2981 RMK SC1AC2CS1 SC TR CS TR SLP097
Pressure 29.82 in
Visibility 15.0 miles
Clouds Few 2500 ft
Few 8300 ft
Few 22000 ft
Windchill 39 °F
Dew Point 39 °F
Humidity 76%
Rainfall 0.00 in
Snow Depth Not available.
5:00 PM 5:00 PM
Waxing Gibbous, 88% visible
METAR CYHI 241500Z 02016KT 15SM FEW025 FEW083 FEW220 08/04 A2981 RMK SC1AC2CS1 SC TR CS TR SLP097

Get Severe Weather Alerts

Thanks for signing up!

Be on the lookout for a verification email in your inbox.

You'll start receiving the daily forecast at 6 AM.

×

10-Day Weather Forecast

Almanac

Astronomy

Jun. 24, 2018 Rise Set
Actual Time
Civil Twilight
Nautical Twilight
Astronomical Twilight
Moon
Length of Visible Light
Length of Day
Tomorrow will be .
, % of the Moon is Illuminated

Today's Extremes

Country Highs Country Lows

Community

WunderPhotos

Category 6

Welcome to Category 6. This is the collective home for Weather Underground's featured writeups by Dr. Jeff Masters (right), Bob Henson (left), Chris Burt, and other regular contributors.

Nearby

Air Quality

  Air Quality AQ Index Pollutant
Not available.

Snow Depth

Station Depth Elevation

Earthquake Activity

City Distance Mag. Time & Date
Minimum magnitude displayed is 2.5.

Coastal Water Temperatures

Place Temperature

Stations

Nearby Weather Stations

Station Location Temp. Windchill Dew Point Humidity Wind Precip. Elev Updated Type
                   

Watches & Warnings

There are currently no watches in effect.